sensor_id;sensor_type;location;lat;lon;timestamp;P1;durP1;ratioP1;P2;durP2;ratioP2
5217;SDS011;26539;51.064;6.346;2022-11-15T00:01:17;15.90;;;12.40;;
5217;SDS011;26539;51.064;6.346;2022-11-15T00:03:43;15.07;;;12.20;;
5217;SDS011;26539;51.064;6.346;2022-11-15T00:06:09;16.37;;;12.20;;
5217;SDS011;26539;51.064;6.346;2022-11-15T00:08:35;18.77;;;13.60;;
5217;SDS011;26539;51.064;6.346;2022-11-15T00:11:01;16.33;;;13.13;;
5217;SDS011;26539;51.064;6.346;2022-11-15T00:13:27;23.90;;;14.53;;
5217;SDS011;26539;51.064;6.346;2022-11-15T00:15:56;15.33;;;12.10;;
5217;SDS011;26539;51.064;6.346;2022-11-15T00:18:23;16.10;;;12.97;;
5217;SDS011;26539;51.064;6.346;2022-11-15T00:20:48;15.70;;;12.50;;
5217;SDS011;26539;51.064;6.346;2022-11-15T00:23:14;17.40;;;12.40;;
5217;SDS011;26539;51.064;6.346;2022-11-15T00:25:39;18.13;;;13.17;;
5217;SDS011;26539;51.064;6.346;2022-11-15T00:28:05;14.50;;;12.00;;
5217;SDS011;26539;51.064;6.346;2022-11-15T00:30:30;23.20;;;13.60;;
5217;SDS011;26539;51.064;6.346;2022-11-15T00:32:56;15.23;;;12.13;;
5217;SDS011;26539;51.064;6.346;2022-11-15T00:35:25;18.27;;;13.00;;
5217;SDS011;26539;51.064;6.346;2022-11-15T00:37:52;15.57;;;12.40;;
5217;SDS011;26539;51.064;6.346;2022-11-15T00:40:17;22.50;;;14.00;;
5217;SDS011;26539;51.064;6.346;2022-11-15T00:42:43;17.27;;;13.37;;
5217;SDS011;26539;51.064;6.346;2022-11-15T00:45:09;21.37;;;12.33;;
5217;SDS011;26539;51.064;6.346;2022-11-15T00:47:35;15.87;;;12.10;;
5217;SDS011;26539;51.064;6.346;2022-11-15T00:50:00;14.43;;;11.90;;
5217;SDS011;26539;51.064;6.346;2022-11-15T00:52:26;16.70;;;12.30;;
5217;SDS011;26539;51.064;6.346;2022-11-15T00:54:51;18.10;;;13.03;;
5217;SDS011;26539;51.064;6.346;2022-11-15T00:57:17;25.13;;;12.33;;
5217;SDS011;26539;51.064;6.346;2022-11-15T00:59:42;14.30;;;11.57;;
5217;SDS011;26539;51.064;6.346;2022-11-15T01:02:08;18.63;;;12.50;;
5217;SDS011;26539;51.064;6.346;2022-11-15T01:04:33;14.37;;;11.93;;
5217;SDS011;26539;51.064;6.346;2022-11-15T01:06:59;17.20;;;11.00;;
5217;SDS011;26539;51.064;6.346;2022-11-15T01:09:24;16.47;;;12.90;;
5217;SDS011;26539;51.064;6.346;2022-11-15T01:11:50;14.67;;;12.43;;
5217;SDS011;26539;51.064;6.346;2022-11-15T01:14:15;14.37;;;11.27;;
5217;SDS011;26539;51.064;6.346;2022-11-15T01:16:41;15.40;;;11.77;;
5217;SDS011;26539;51.064;6.346;2022-11-15T01:19:06;17.73;;;12.53;;
5217;SDS011;26539;51.064;6.346;2022-11-15T01:21:32;17.20;;;11.87;;
5217;SDS011;26539;51.064;6.346;2022-11-15T01:23:57;18.50;;;11.90;;
5217;SDS011;26539;51.064;6.346;2022-11-15T01:26:23;16.23;;;11.53;;
5217;SDS011;26539;51.064;6.346;2022-11-15T01:28:49;17.40;;;12.53;;
5217;SDS011;26539;51.064;6.346;2022-11-15T01:31:16;16.17;;;11.63;;
5217;SDS011;26539;51.064;6.346;2022-11-15T01:33:45;14.50;;;10.53;;
5217;SDS011;26539;51.064;6.346;2022-11-15T01:36:13;14.20;;;11.40;;
5217;SDS011;26539;51.064;6.346;2022-11-15T01:38:40;16.20;;;12.43;;
5217;SDS011;26539;51.064;6.346;2022-11-15T01:41:06;16.30;;;12.07;;
5217;SDS011;26539;51.064;6.346;2022-11-15T01:43:38;18.10;;;12.63;;
5217;SDS011;26539;51.064;6.346;2022-11-15T01:46:19;12.53;;;11.10;;
5217;SDS011;26539;51.064;6.346;2022-11-15T01:49:00;13.57;;;11.33;;
5217;SDS011;26539;51.064;6.346;2022-11-15T01:51:29;15.00;;;10.50;;
5217;SDS011;26539;51.064;6.346;2022-11-15T01:54:00;18.00;;;10.63;;
5217;SDS011;26539;51.064;6.346;2022-11-15T01:56:32;12.83;;;10.30;;
5217;SDS011;26539;51.064;6.346;2022-11-15T01:59:10;16.10;;;11.07;;
5217;SDS011;26539;51.064;6.346;2022-11-15T02:01:36;20.10;;;12.67;;
5217;SDS011;26539;51.064;6.346;2022-11-15T02:04:10;18.90;;;14.00;;
5217;SDS011;26539;51.064;6.346;2022-11-15T02:06:50;17.27;;;11.07;;
5217;SDS011;26539;51.064;6.346;2022-11-15T02:09:16;13.90;;;10.87;;
5217;SDS011;26539;51.064;6.346;2022-11-15T02:11:42;13.87;;;10.50;;
5217;SDS011;26539;51.064;6.346;2022-11-15T02:14:10;16.73;;;10.30;;
5217;SDS011;26539;51.064;6.346;2022-11-15T02:16:42;13.10;;;9.83;;
5217;SDS011;26539;51.064;6.346;2022-11-15T02:22:37;13.07;;;9.20;;
5217;SDS011;26539;51.064;6.346;2022-11-15T02:27:59;10.10;;;8.23;;
5217;SDS011;26539;51.064;6.346;2022-11-15T02:31:11;9.57;;;8.47;;
5217;SDS011;26539;51.064;6.346;2022-11-15T02:36:29;12.03;;;8.80;;
5217;SDS011;26539;51.064;6.346;2022-11-15T02:39:14;10.43;;;8.23;;
5217;SDS011;26539;51.064;6.346;2022-11-15T02:42:04;10.73;;;8.43;;
5217;SDS011;26539;51.064;6.346;2022-11-15T02:44:56;9.47;;;7.90;;
5217;SDS011;26539;51.064;6.346;2022-11-15T02:47:24;9.83;;;7.40;;
5217;SDS011;26539;51.064;6.346;2022-11-15T02:49:56;10.30;;;8.17;;
5217;SDS011;26539;51.064;6.346;2022-11-15T02:52:25;13.20;;;8.27;;
5217;SDS011;26539;51.064;6.346;2022-11-15T02:54:53;11.57;;;8.07;;
5217;SDS011;26539;51.064;6.346;2022-11-15T02:57:20;13.80;;;8.60;;
5217;SDS011;26539;51.064;6.346;2022-11-15T02:59:55;10.07;;;7.90;;
5217;SDS011;26539;51.064;6.346;2022-11-15T03:02:52;11.43;;;8.50;;
5217;SDS011;26539;51.064;6.346;2022-11-15T03:05:44;12.10;;;8.50;;
5217;SDS011;26539;51.064;6.346;2022-11-15T03:13:38;11.60;;;7.73;;
5217;SDS011;26539;51.064;6.346;2022-11-15T03:16:15;13.97;;;8.60;;
5217;SDS011;26539;51.064;6.346;2022-11-15T03:21:43;10.93;;;7.83;;
5217;SDS011;26539;51.064;6.346;2022-11-15T03:24:11;14.30;;;8.20;;
5217;SDS011;26539;51.064;6.346;2022-11-15T03:26:39;12.70;;;9.47;;
5217;SDS011;26539;51.064;6.346;2022-11-15T03:29:12;9.50;;;7.40;;
5217;SDS011;26539;51.064;6.346;2022-11-15T03:31:44;12.13;;;8.97;;
5217;SDS011;26539;51.064;6.346;2022-11-15T03:34:35;10.37;;;8.50;;
5217;SDS011;26539;51.064;6.346;2022-11-15T03:36:59;11.90;;;8.37;;
5217;SDS011;26539;51.064;6.346;2022-11-15T03:39:25;12.13;;;8.97;;
5217;SDS011;26539;51.064;6.346;2022-11-15T03:41:56;12.60;;;7.90;;
5217;SDS011;26539;51.064;6.346;2022-11-15T03:44:52;13.17;;;9.63;;
5217;SDS011;26539;51.064;6.346;2022-11-15T03:47:25;16.13;;;7.90;;
5217;SDS011;26539;51.064;6.346;2022-11-15T03:49:57;9.40;;;7.97;;
5217;SDS011;26539;51.064;6.346;2022-11-15T03:52:26;12.37;;;8.80;;
5217;SDS011;26539;51.064;6.346;2022-11-15T03:54:56;13.60;;;8.50;;
5217;SDS011;26539;51.064;6.346;2022-11-15T03:57:22;8.80;;;7.90;;
5217;SDS011;26539;51.064;6.346;2022-11-15T03:59:47;9.13;;;8.17;;
5217;SDS011;26539;51.064;6.346;2022-11-15T04:02:13;12.07;;;7.50;;
5217;SDS011;26539;51.064;6.346;2022-11-15T04:04:39;9.83;;;7.30;;
5217;SDS011;26539;51.064;6.346;2022-11-15T04:07:04;9.00;;;7.80;;
5217;SDS011;26539;51.064;6.346;2022-11-15T04:09:30;9.90;;;7.43;;
5217;SDS011;26539;51.064;6.346;2022-11-15T04:11:55;8.53;;;7.53;;
5217;SDS011;26539;51.064;6.346;2022-11-15T04:14:21;8.67;;;7.30;;
5217;SDS011;26539;51.064;6.346;2022-11-15T04:16:46;10.40;;;7.20;;
5217;SDS011;26539;51.064;6.346;2022-11-15T04:19:12;12.40;;;8.30;;
5217;SDS011;26539;51.064;6.346;2022-11-15T04:21:56;10.50;;;7.13;;
5217;SDS011;26539;51.064;6.346;2022-11-15T04:24:40;9.60;;;6.70;;
5217;SDS011;26539;51.064;6.346;2022-11-15T04:27:06;11.80;;;7.40;;
5217;SDS011;26539;51.064;6.346;2022-11-15T04:29:31;8.53;;;6.47;;
5217;SDS011;26539;51.064;6.346;2022-11-15T04:32:00;8.07;;;6.70;;
5217;SDS011;26539;51.064;6.346;2022-11-15T04:34:30;8.97;;;6.03;;
5217;SDS011;26539;51.064;6.346;2022-11-15T04:36:56;7.50;;;6.70;;
5217;SDS011;26539;51.064;6.346;2022-11-15T04:39:38;9.33;;;8.33;;
5217;SDS011;26539;51.064;6.346;2022-11-15T04:42:04;10.50;;;8.83;;
5217;SDS011;26539;51.064;6.346;2022-11-15T04:44:30;14.30;;;10.00;;
5217;SDS011;26539;51.064;6.346;2022-11-15T04:46:55;12.37;;;8.50;;
5217;SDS011;26539;51.064;6.346;2022-11-15T04:49:21;8.30;;;6.80;;
5217;SDS011;26539;51.064;6.346;2022-11-15T04:51:46;9.43;;;6.70;;
5217;SDS011;26539;51.064;6.346;2022-11-15T04:54:12;8.03;;;6.40;;
5217;SDS011;26539;51.064;6.346;2022-11-15T04:56:37;6.70;;;5.97;;
5217;SDS011;26539;51.064;6.346;2022-11-15T04:59:03;9.43;;;5.97;;
5217;SDS011;26539;51.064;6.346;2022-11-15T05:01:29;10.30;;;6.17;;
5217;SDS011;26539;51.064;6.346;2022-11-15T05:03:54;10.47;;;6.70;;
5217;SDS011;26539;51.064;6.346;2022-11-15T05:06:38;10.03;;;6.40;;
5217;SDS011;26539;51.064;6.346;2022-11-15T05:09:04;7.43;;;6.03;;
5217;SDS011;26539;51.064;6.346;2022-11-15T05:11:29;6.00;;;4.90;;
5217;SDS011;26539;51.064;6.346;2022-11-15T05:13:55;8.30;;;6.20;;
5217;SDS011;26539;51.064;6.346;2022-11-15T05:16:21;10.50;;;7.00;;
5217;SDS011;26539;51.064;6.346;2022-11-15T05:18:49;6.90;;;5.93;;
5217;SDS011;26539;51.064;6.346;2022-11-15T05:21:16;8.83;;;6.77;;
5217;SDS011;26539;51.064;6.346;2022-11-15T05:23:42;10.57;;;7.00;;
5217;SDS011;26539;51.064;6.346;2022-11-15T05:26:07;7.83;;;6.60;;
5217;SDS011;26539;51.064;6.346;2022-11-15T05:28:33;8.67;;;7.27;;
5217;SDS011;26539;51.064;6.346;2022-11-15T05:31:00;8.80;;;6.13;;
5217;SDS011;26539;51.064;6.346;2022-11-15T05:33:26;7.60;;;6.00;;
5217;SDS011;26539;51.064;6.346;2022-11-15T05:35:54;5.30;;;4.80;;
5217;SDS011;26539;51.064;6.346;2022-11-15T05:38:26;7.17;;;5.43;;
5217;SDS011;26539;51.064;6.346;2022-11-15T05:40:51;6.27;;;5.50;;
5217;SDS011;26539;51.064;6.346;2022-11-15T05:43:17;6.90;;;4.93;;
5217;SDS011;26539;51.064;6.346;2022-11-15T05:45:42;6.53;;;5.50;;
5217;SDS011;26539;51.064;6.346;2022-11-15T05:48:08;7.03;;;5.50;;
5217;SDS011;26539;51.064;6.346;2022-11-15T05:50:35;9.10;;;5.93;;
5217;SDS011;26539;51.064;6.346;2022-11-15T05:53:02;8.43;;;5.30;;
5217;SDS011;26539;51.064;6.346;2022-11-15T05:55:28;6.40;;;5.00;;
5217;SDS011;26539;51.064;6.346;2022-11-15T05:57:53;6.90;;;5.57;;
5217;SDS011;26539;51.064;6.346;2022-11-15T06:00:19;5.47;;;4.97;;
5217;SDS011;26539;51.064;6.346;2022-11-15T06:02:45;7.00;;;4.70;;
5217;SDS011;26539;51.064;6.346;2022-11-15T06:05:10;4.50;;;4.10;;
5217;SDS011;26539;51.064;6.346;2022-11-15T06:07:36;4.17;;;3.77;;
5217;SDS011;26539;51.064;6.346;2022-11-15T06:10:01;4.40;;;3.53;;
5217;SDS011;26539;51.064;6.346;2022-11-15T06:12:27;3.93;;;3.37;;
5217;SDS011;26539;51.064;6.346;2022-11-15T06:14:52;5.10;;;4.23;;
5217;SDS011;26539;51.064;6.346;2022-11-15T06:17:18;4.10;;;3.30;;
5217;SDS011;26539;51.064;6.346;2022-11-15T06:19:43;4.20;;;2.90;;
5217;SDS011;26539;51.064;6.346;2022-11-15T06:22:09;4.10;;;2.13;;
5217;SDS011;26539;51.064;6.346;2022-11-15T06:24:34;2.33;;;2.10;;
5217;SDS011;26539;51.064;6.346;2022-11-15T06:27:00;3.07;;;2.50;;
5217;SDS011;26539;51.064;6.346;2022-11-15T06:29:26;2.60;;;2.10;;
5217;SDS011;26539;51.064;6.346;2022-11-15T06:31:51;3.03;;;1.90;;
5217;SDS011;26539;51.064;6.346;2022-11-15T06:34:17;2.47;;;1.80;;
5217;SDS011;26539;51.064;6.346;2022-11-15T06:36:43;4.30;;;1.90;;
5217;SDS011;26539;51.064;6.346;2022-11-15T06:39:08;1.67;;;1.50;;
5217;SDS011;26539;51.064;6.346;2022-11-15T06:41:34;3.20;;;1.40;;
5217;SDS011;26539;51.064;6.346;2022-11-15T06:44:00;3.50;;;1.50;;
5217;SDS011;26539;51.064;6.346;2022-11-15T06:46:27;1.87;;;1.37;;
5217;SDS011;26539;51.064;6.346;2022-11-15T06:48:52;2.57;;;1.50;;
5217;SDS011;26539;51.064;6.346;2022-11-15T06:51:18;1.83;;;1.40;;
5217;SDS011;26539;51.064;6.346;2022-11-15T06:53:44;1.90;;;1.50;;
5217;SDS011;26539;51.064;6.346;2022-11-15T06:56:09;1.63;;;1.30;;
5217;SDS011;26539;51.064;6.346;2022-11-15T06:58:35;2.13;;;1.10;;
5217;SDS011;26539;51.064;6.346;2022-11-15T07:01:05;1.43;;;0.97;;
5217;SDS011;26539;51.064;6.346;2022-11-15T07:03:36;1.67;;;1.20;;
5217;SDS011;26539;51.064;6.346;2022-11-15T07:06:03;2.13;;;1.43;;
5217;SDS011;26539;51.064;6.346;2022-11-15T07:08:29;1.47;;;1.00;;
5217;SDS011;26539;51.064;6.346;2022-11-15T07:10:57;2.57;;;1.20;;
5217;SDS011;26539;51.064;6.346;2022-11-15T07:13:25;3.40;;;1.50;;
5217;SDS011;26539;51.064;6.346;2022-11-15T07:15:51;2.90;;;1.40;;
5217;SDS011;26539;51.064;6.346;2022-11-15T07:18:17;1.40;;;0.97;;
5217;SDS011;26539;51.064;6.346;2022-11-15T07:20:42;2.70;;;1.17;;
5217;SDS011;26539;51.064;6.346;2022-11-15T07:23:08;3.20;;;1.30;;
5217;SDS011;26539;51.064;6.346;2022-11-15T07:25:33;2.23;;;0.97;;
5217;SDS011;26539;51.064;6.346;2022-11-15T07:27:59;1.77;;;1.27;;
5217;SDS011;26539;51.064;6.346;2022-11-15T07:30:26;1.57;;;1.30;;
5217;SDS011;26539;51.064;6.346;2022-11-15T07:32:53;2.50;;;1.43;;
5217;SDS011;26539;51.064;6.346;2022-11-15T07:35:23;1.80;;;1.50;;
5217;SDS011;26539;51.064;6.346;2022-11-15T07:37:56;1.50;;;1.40;;
5217;SDS011;26539;51.064;6.346;2022-11-15T07:40:23;2.37;;;1.50;;
5217;SDS011;26539;51.064;6.346;2022-11-15T07:42:49;3.27;;;1.53;;
5217;SDS011;26539;51.064;6.346;2022-11-15T07:45:17;4.70;;;1.20;;
5217;SDS011;26539;51.064;6.346;2022-11-15T07:47:47;3.70;;;2.17;;
5217;SDS011;26539;51.064;6.346;2022-11-15T07:50:16;1.90;;;1.23;;
5217;SDS011;26539;51.064;6.346;2022-11-15T07:52:42;3.13;;;2.40;;
5217;SDS011;26539;51.064;6.346;2022-11-15T07:55:08;4.40;;;1.90;;
5217;SDS011;26539;51.064;6.346;2022-11-15T07:57:34;3.40;;;2.10;;
5217;SDS011;26539;51.064;6.346;2022-11-15T08:00:00;2.20;;;2.00;;
5217;SDS011;26539;51.064;6.346;2022-11-15T08:02:26;1.87;;;1.67;;
5217;SDS011;26539;51.064;6.346;2022-11-15T08:04:51;1.97;;;1.80;;
5217;SDS011;26539;51.064;6.346;2022-11-15T08:07:17;3.40;;;1.40;;
5217;SDS011;26539;51.064;6.346;2022-11-15T08:09:42;2.13;;;1.33;;
5217;SDS011;26539;51.064;6.346;2022-11-15T08:12:08;1.40;;;1.20;;
5217;SDS011;26539;51.064;6.346;2022-11-15T08:14:34;2.17;;;1.20;;
5217;SDS011;26539;51.064;6.346;2022-11-15T08:17:00;1.87;;;1.00;;
5217;SDS011;26539;51.064;6.346;2022-11-15T08:19:25;4.53;;;1.20;;
5217;SDS011;26539;51.064;6.346;2022-11-15T08:21:51;2.53;;;1.50;;
5217;SDS011;26539;51.064;6.346;2022-11-15T08:24:16;2.33;;;1.30;;
5217;SDS011;26539;51.064;6.346;2022-11-15T08:26:42;2.20;;;1.50;;
5217;SDS011;26539;51.064;6.346;2022-11-15T08:29:07;2.80;;;1.30;;
5217;SDS011;26539;51.064;6.346;2022-11-15T08:31:33;2.20;;;1.03;;
5217;SDS011;26539;51.064;6.346;2022-11-15T08:34:01;1.47;;;0.90;;
5217;SDS011;26539;51.064;6.346;2022-11-15T08:36:27;1.60;;;1.13;;
5217;SDS011;26539;51.064;6.346;2022-11-15T08:38:53;2.37;;;1.20;;
5217;SDS011;26539;51.064;6.346;2022-11-15T08:41:24;2.47;;;1.00;;
5217;SDS011;26539;51.064;6.346;2022-11-15T08:43:54;1.40;;;1.00;;
5217;SDS011;26539;51.064;6.346;2022-11-15T08:46:20;1.23;;;0.90;;
5217;SDS011;26539;51.064;6.346;2022-11-15T08:48:45;2.20;;;0.80;;
5217;SDS011;26539;51.064;6.346;2022-11-15T08:51:11;1.53;;;1.00;;
5217;SDS011;26539;51.064;6.346;2022-11-15T08:53:36;2.43;;;1.07;;
5217;SDS011;26539;51.064;6.346;2022-11-15T08:56:02;2.17;;;1.30;;
5217;SDS011;26539;51.064;6.346;2022-11-15T08:58:31;4.20;;;1.30;;
5217;SDS011;26539;51.064;6.346;2022-11-15T09:00:57;2.50;;;1.33;;
5217;SDS011;26539;51.064;6.346;2022-11-15T09:03:22;2.50;;;1.27;;
5217;SDS011;26539;51.064;6.346;2022-11-15T09:05:48;4.00;;;1.60;;
5217;SDS011;26539;51.064;6.346;2022-11-15T09:08:13;3.40;;;1.00;;
5217;SDS011;26539;51.064;6.346;2022-11-15T09:10:39;2.73;;;0.93;;
5217;SDS011;26539;51.064;6.346;2022-11-15T09:13:04;3.70;;;1.30;;
5217;SDS011;26539;51.064;6.346;2022-11-15T09:15:30;2.60;;;0.93;;
5217;SDS011;26539;51.064;6.346;2022-11-15T09:17:59;3.73;;;1.20;;
5217;SDS011;26539;51.064;6.346;2022-11-15T09:20:24;3.60;;;1.10;;
5217;SDS011;26539;51.064;6.346;2022-11-15T09:22:50;4.00;;;1.20;;
5217;SDS011;26539;51.064;6.346;2022-11-15T09:25:15;2.43;;;1.30;;
5217;SDS011;26539;51.064;6.346;2022-11-15T09:27:41;2.63;;;1.20;;
5217;SDS011;26539;51.064;6.346;2022-11-15T09:30:06;1.90;;;1.20;;
5217;SDS011;26539;51.064;6.346;2022-11-15T09:32:32;3.17;;;1.90;;
5217;SDS011;26539;51.064;6.346;2022-11-15T09:34:58;2.30;;;1.47;;
5217;SDS011;26539;51.064;6.346;2022-11-15T09:37:23;4.33;;;1.60;;
5217;SDS011;26539;51.064;6.346;2022-11-15T09:39:49;10.13;;;1.40;;
5217;SDS011;26539;51.064;6.346;2022-11-15T09:42:25;1.80;;;1.00;;
5217;SDS011;26539;51.064;6.346;2022-11-15T09:45:17;2.90;;;1.30;;
5217;SDS011;26539;51.064;6.346;2022-11-15T09:50:44;2.73;;;1.10;;
5217;SDS011;26539;51.064;6.346;2022-11-15T09:53:14;4.20;;;1.43;;
5217;SDS011;26539;51.064;6.346;2022-11-15T09:56:31;2.40;;;1.70;;
5217;SDS011;26539;51.064;6.346;2022-11-15T09:59:13;3.37;;;2.43;;
5217;SDS011;26539;51.064;6.346;2022-11-15T10:01:56;5.53;;;2.53;;
5217;SDS011;26539;51.064;6.346;2022-11-15T10:04:43;1.73;;;1.40;;
5217;SDS011;26539;51.064;6.346;2022-11-15T10:09:47;3.00;;;1.90;;
5217;SDS011;26539;51.064;6.346;2022-11-15T10:12:28;2.73;;;1.63;;
5217;SDS011;26539;51.064;6.346;2022-11-15T10:15:00;3.70;;;1.50;;
5217;SDS011;26539;51.064;6.346;2022-11-15T10:20:10;4.10;;;1.53;;
5217;SDS011;26539;51.064;6.346;2022-11-15T10:22:41;3.63;;;1.33;;
5217;SDS011;26539;51.064;6.346;2022-11-15T10:25:15;3.40;;;1.27;;
5217;SDS011;26539;51.064;6.346;2022-11-15T10:27:51;2.60;;;1.57;;
5217;SDS011;26539;51.064;6.346;2022-11-15T10:30:30;3.20;;;1.30;;
5217;SDS011;26539;51.064;6.346;2022-11-15T10:33:09;5.50;;;1.20;;
5217;SDS011;26539;51.064;6.346;2022-11-15T10:35:45;5.70;;;1.03;;
5217;SDS011;26539;51.064;6.346;2022-11-15T10:38:11;6.63;;;1.20;;
5217;SDS011;26539;51.064;6.346;2022-11-15T10:40:38;1.80;;;1.17;;
5217;SDS011;26539;51.064;6.346;2022-11-15T10:45:37;5.03;;;1.57;;
5217;SDS011;26539;51.064;6.346;2022-11-15T10:50:38;2.60;;;1.27;;
5217;SDS011;26539;51.064;6.346;2022-11-15T10:53:12;6.43;;;1.40;;
5217;SDS011;26539;51.064;6.346;2022-11-15T10:55:49;5.03;;;1.97;;
5217;SDS011;26539;51.064;6.346;2022-11-15T11:03:40;3.77;;;1.10;;
5217;SDS011;26539;51.064;6.346;2022-11-15T11:06:17;1.60;;;0.97;;
5217;SDS011;26539;51.064;6.346;2022-11-15T11:11:22;2.73;;;1.17;;
5217;SDS011;26539;51.064;6.346;2022-11-15T11:13:48;1.77;;;1.00;;
5217;SDS011;26539;51.064;6.346;2022-11-15T11:18:45;6.13;;;4.40;;
5217;SDS011;26539;51.064;6.346;2022-11-15T11:21:15;3.80;;;1.57;;
5217;SDS011;26539;51.064;6.346;2022-11-15T11:23:51;3.13;;;1.00;;
5217;SDS011;26539;51.064;6.346;2022-11-15T11:26:32;2.47;;;1.00;;
5217;SDS011;26539;51.064;6.346;2022-11-15T11:29:33;2.43;;;0.90;;
5217;SDS011;26539;51.064;6.346;2022-11-15T11:32:36;2.03;;;0.80;;
5217;SDS011;26539;51.064;6.346;2022-11-15T11:35:17;4.80;;;1.13;;
5217;SDS011;26539;51.064;6.346;2022-11-15T11:40:27;2.10;;;1.07;;
5217;SDS011;26539;51.064;6.346;2022-11-15T11:48:12;3.37;;;1.80;;
5217;SDS011;26539;51.064;6.346;2022-11-15T11:50:39;2.20;;;0.90;;
5217;SDS011;26539;51.064;6.346;2022-11-15T11:55:57;3.47;;;0.80;;
5217;SDS011;26539;51.064;6.346;2022-11-15T11:58:34;2.60;;;0.90;;
5217;SDS011;26539;51.064;6.346;2022-11-15T12:06:22;5.77;;;0.97;;
5217;SDS011;26539;51.064;6.346;2022-11-15T12:09:23;2.73;;;1.00;;
5217;SDS011;26539;51.064;6.346;2022-11-15T12:17:08;2.37;;;1.03;;
5217;SDS011;26539;51.064;6.346;2022-11-15T12:19:36;4.70;;;1.43;;
5217;SDS011;26539;51.064;6.346;2022-11-15T12:22:04;3.27;;;1.10;;
5217;SDS011;26539;51.064;6.346;2022-11-15T12:24:40;4.23;;;1.80;;
5217;SDS011;26539;51.064;6.346;2022-11-15T12:30:15;5.83;;;1.30;;
5217;SDS011;26539;51.064;6.346;2022-11-15T12:32:50;6.93;;;1.53;;
5217;SDS011;26539;51.064;6.346;2022-11-15T12:35:26;4.30;;;2.17;;
5217;SDS011;26539;51.064;6.346;2022-11-15T12:37:55;3.10;;;1.83;;
5217;SDS011;26539;51.064;6.346;2022-11-15T13:11:41;10.50;;;4.93;;
5217;SDS011;26539;51.064;6.346;2022-11-15T13:19:48;8.83;;;1.50;;
5217;SDS011;26539;51.064;6.346;2022-11-15T13:22:41;8.87;;;1.47;;
5217;SDS011;26539;51.064;6.346;2022-11-15T13:28:00;7.40;;;1.50;;
5217;SDS011;26539;51.064;6.346;2022-11-15T13:30:38;13.30;;;1.57;;
5217;SDS011;26539;51.064;6.346;2022-11-15T13:33:35;3.53;;;1.60;;
5217;SDS011;26539;51.064;6.346;2022-11-15T13:36:23;6.90;;;1.73;;
5217;SDS011;26539;51.064;6.346;2022-11-15T13:41:57;4.90;;;1.87;;
5217;SDS011;26539;51.064;6.346;2022-11-15T13:44:58;18.70;;;2.30;;
5217;SDS011;26539;51.064;6.346;2022-11-15T13:53:27;9.03;;;1.40;;
5217;SDS011;26539;51.064;6.346;2022-11-15T13:56:04;7.90;;;1.60;;
5217;SDS011;26539;51.064;6.346;2022-11-15T13:58:33;10.60;;;1.60;;
5217;SDS011;26539;51.064;6.346;2022-11-15T14:01:40;4.00;;;2.43;;
5217;SDS011;26539;51.064;6.346;2022-11-15T14:04:13;2.73;;;1.47;;
5217;SDS011;26539;51.064;6.346;2022-11-15T14:07:16;3.77;;;1.80;;
5217;SDS011;26539;51.064;6.346;2022-11-15T14:18:43;4.93;;;2.33;;
5217;SDS011;26539;51.064;6.346;2022-11-15T14:21:23;7.23;;;4.50;;
5217;SDS011;26539;51.064;6.346;2022-11-15T14:23:48;3.20;;;2.70;;
5217;SDS011;26539;51.064;6.346;2022-11-15T14:26:30;4.60;;;1.77;;
5217;SDS011;26539;51.064;6.346;2022-11-15T14:29:20;2.87;;;2.10;;
5217;SDS011;26539;51.064;6.346;2022-11-15T14:35:19;2.53;;;1.50;;
5217;SDS011;26539;51.064;6.346;2022-11-15T14:37:46;6.50;;;1.80;;
5217;SDS011;26539;51.064;6.346;2022-11-15T14:40:21;9.10;;;2.10;;
5217;SDS011;26539;51.064;6.346;2022-11-15T14:42:48;2.90;;;1.63;;
5217;SDS011;26539;51.064;6.346;2022-11-15T14:45:34;12.57;;;2.57;;
5217;SDS011;26539;51.064;6.346;2022-11-15T14:48:19;6.43;;;2.17;;
5217;SDS011;26539;51.064;6.346;2022-11-15T14:53:54;5.17;;;2.20;;
5217;SDS011;26539;51.064;6.346;2022-11-15T14:56:36;2.47;;;1.77;;
5217;SDS011;26539;51.064;6.346;2022-11-15T14:59:16;2.30;;;1.73;;
5217;SDS011;26539;51.064;6.346;2022-11-15T15:04:59;7.10;;;2.27;;
5217;SDS011;26539;51.064;6.346;2022-11-15T15:07:28;3.50;;;1.90;;
5217;SDS011;26539;51.064;6.346;2022-11-15T15:09:56;3.23;;;2.00;;
5217;SDS011;26539;51.064;6.346;2022-11-15T15:12:22;5.23;;;2.20;;
5217;SDS011;26539;51.064;6.346;2022-11-15T15:14:50;29.23;;;22.30;;
5217;SDS011;26539;51.064;6.346;2022-11-15T15:17:16;7.70;;;4.60;;
5217;SDS011;26539;51.064;6.346;2022-11-15T15:19:45;3.23;;;2.40;;
5217;SDS011;26539;51.064;6.346;2022-11-15T15:22:16;14.40;;;13.03;;
5217;SDS011;26539;51.064;6.346;2022-11-15T15:25:17;6.80;;;3.70;;
5217;SDS011;26539;51.064;6.346;2022-11-15T15:28:11;3.83;;;2.67;;
5217;SDS011;26539;51.064;6.346;2022-11-15T15:30:37;4.43;;;3.47;;
5217;SDS011;26539;51.064;6.346;2022-11-15T15:33:14;3.47;;;2.70;;
5217;SDS011;26539;51.064;6.346;2022-11-15T15:35:39;5.97;;;4.97;;
5217;SDS011;26539;51.064;6.346;2022-11-15T15:38:05;11.93;;;10.87;;
5217;SDS011;26539;51.064;6.346;2022-11-15T15:40:31;3.53;;;2.17;;
5217;SDS011;26539;51.064;6.346;2022-11-15T15:43:01;5.83;;;4.70;;
5217;SDS011;26539;51.064;6.346;2022-11-15T15:45:31;4.50;;;3.00;;
5217;SDS011;26539;51.064;6.346;2022-11-15T15:48:09;5.17;;;2.13;;
5217;SDS011;26539;51.064;6.346;2022-11-15T15:50:39;5.47;;;2.53;;
5217;SDS011;26539;51.064;6.346;2022-11-15T15:53:08;4.10;;;2.30;;
5217;SDS011;26539;51.064;6.346;2022-11-15T15:55:37;19.47;;;15.73;;
5217;SDS011;26539;51.064;6.346;2022-11-15T15:58:04;6.47;;;5.67;;
5217;SDS011;26539;51.064;6.346;2022-11-15T16:00:30;3.17;;;2.17;;
5217;SDS011;26539;51.064;6.346;2022-11-15T16:03:00;22.93;;;20.47;;
5217;SDS011;26539;51.064;6.346;2022-11-15T16:05:25;4.90;;;4.23;;
5217;SDS011;26539;51.064;6.346;2022-11-15T16:07:53;5.63;;;2.90;;
5217;SDS011;26539;51.064;6.346;2022-11-15T16:10:23;3.63;;;1.90;;
5217;SDS011;26539;51.064;6.346;2022-11-15T16:12:52;3.23;;;2.30;;
5217;SDS011;26539;51.064;6.346;2022-11-15T16:15:18;3.17;;;2.70;;
5217;SDS011;26539;51.064;6.346;2022-11-15T16:17:53;4.13;;;3.00;;
5217;SDS011;26539;51.064;6.346;2022-11-15T16:23:10;4.50;;;3.07;;
5217;SDS011;26539;51.064;6.346;2022-11-15T16:25:58;3.37;;;2.80;;
5217;SDS011;26539;51.064;6.346;2022-11-15T16:28:31;5.80;;;3.70;;
5217;SDS011;26539;51.064;6.346;2022-11-15T16:33:50;4.53;;;2.90;;
5217;SDS011;26539;51.064;6.346;2022-11-15T16:36:26;8.40;;;3.97;;
5217;SDS011;26539;51.064;6.346;2022-11-15T16:38:57;7.73;;;3.50;;
5217;SDS011;26539;51.064;6.346;2022-11-15T16:41:28;9.63;;;3.10;;
5217;SDS011;26539;51.064;6.346;2022-11-15T16:43:57;5.37;;;3.50;;
5217;SDS011;26539;51.064;6.346;2022-11-15T16:46:25;6.53;;;3.40;;
5217;SDS011;26539;51.064;6.346;2022-11-15T16:48:57;7.03;;;4.40;;
5217;SDS011;26539;51.064;6.346;2022-11-15T16:51:25;15.90;;;8.03;;
5217;SDS011;26539;51.064;6.346;2022-11-15T16:53:53;11.97;;;8.80;;
5217;SDS011;26539;51.064;6.346;2022-11-15T16:56:25;11.57;;;9.53;;
5217;SDS011;26539;51.064;6.346;2022-11-15T16:58:56;32.33;;;23.43;;
5217;SDS011;26539;51.064;6.346;2022-11-15T17:01:28;27.93;;;23.53;;
5217;SDS011;26539;51.064;6.346;2022-11-15T17:04:17;17.30;;;13.37;;
5217;SDS011;26539;51.064;6.346;2022-11-15T17:07:07;49.40;;;44.37;;
5217;SDS011;26539;51.064;6.346;2022-11-15T17:09:50;31.23;;;26.80;;
5217;SDS011;26539;51.064;6.346;2022-11-15T17:12:26;27.00;;;23.50;;
5217;SDS011;26539;51.064;6.346;2022-11-15T17:14:52;23.53;;;12.77;;
5217;SDS011;26539;51.064;6.346;2022-11-15T17:17:23;18.50;;;14.23;;
5217;SDS011;26539;51.064;6.346;2022-11-15T17:20:06;32.43;;;17.03;;
5217;SDS011;26539;51.064;6.346;2022-11-15T17:23:02;33.97;;;21.50;;
5217;SDS011;26539;51.064;6.346;2022-11-15T17:26:00;14.00;;;8.27;;
5217;SDS011;26539;51.064;6.346;2022-11-15T17:32:05;19.30;;;17.43;;
5217;SDS011;26539;51.064;6.346;2022-11-15T17:38:03;11.30;;;6.50;;
5217;SDS011;26539;51.064;6.346;2022-11-15T17:44:04;12.90;;;7.47;;